createdAt,value
2017-12-12T00:00:02.465Z,15.8
2017-12-12T00:01:04.935Z,15.4
2017-12-12T00:02:07.682Z,15
2017-12-12T00:03:10.883Z,15
2017-12-12T00:04:13.897Z,15.1
2017-12-12T00:05:19.314Z,15.3
2017-12-12T00:06:22.914Z,14.9
2017-12-12T00:07:26.847Z,14.9
2017-12-12T00:08:36.755Z,14.5
2017-12-12T00:09:40.162Z,15
2017-12-12T00:10:44.142Z,14.6
2017-12-12T00:11:48.663Z,14.7
2017-12-12T00:12:53.093Z,14.4
2017-12-12T00:13:55.755Z,14.3
2017-12-12T00:14:59.941Z,14.8
2017-12-12T00:16:05.943Z,15
2017-12-12T00:17:08.532Z,14.9
2017-12-12T00:18:10.998Z,14.7
2017-12-12T00:19:14.770Z,14.4
2017-12-12T00:20:19.477Z,14.8
2017-12-12T00:21:23.190Z,15
2017-12-12T00:22:28.070Z,14.8
2017-12-12T00:23:30.680Z,14.7
2017-12-12T00:24:33.178Z,14.8
2017-12-12T00:25:36.178Z,14.9
2017-12-12T00:26:38.746Z,15.1
2017-12-12T00:27:41.282Z,14.8
2017-12-12T00:28:44.359Z,14.5
2017-12-12T00:29:46.857Z,15.5
2017-12-12T00:30:49.357Z,15
2017-12-12T00:31:51.752Z,14.6
2017-12-12T00:32:54.174Z,14.5
2017-12-12T00:33:56.662Z,14.7
2017-12-12T00:34:59.266Z,15.1
2017-12-12T00:36:01.936Z,14.6
2017-12-12T00:37:04.408Z,14
2017-12-12T00:38:07.004Z,14.2
2017-12-12T00:39:12.029Z,15.2
2017-12-12T00:40:14.465Z,14.9
2017-12-12T00:41:17.032Z,14.7
2017-12-12T00:42:19.516Z,14.5
2017-12-12T00:43:22.637Z,14.3
2017-12-12T00:44:25.313Z,14
2017-12-12T00:45:27.875Z,13.7
2017-12-12T00:46:30.475Z,14
2017-12-12T00:47:32.930Z,14.1
2017-12-12T00:48:41.934Z,14.1
2017-12-12T00:49:45.157Z,14.7
2017-12-12T00:50:47.731Z,14.3
2017-12-12T00:51:50.619Z,14.4
2017-12-12T00:52:53.635Z,14.4
2017-12-12T00:53:58.957Z,14.3
2017-12-12T00:55:02.245Z,14.1
2017-12-12T00:56:05.270Z,14.2
2017-12-12T00:57:08.210Z,14.1
2017-12-12T00:58:12.222Z,14
2017-12-12T00:59:21.232Z,14.2
2017-12-12T01:00:23.683Z,14.2
2017-12-12T01:01:26.287Z,14.7
2017-12-12T01:02:29.143Z,14
2017-12-12T01:03:32.230Z,14
2017-12-12T01:04:36.132Z,14.4
2017-12-12T01:05:39.370Z,14.5
2017-12-12T01:06:43.613Z,14.3
2017-12-12T01:07:46.495Z,14.1
2017-12-12T01:08:58.978Z,14.4
2017-12-12T01:10:02.658Z,14.7
2017-12-12T01:11:07.501Z,14.6
2017-12-12T01:12:10.925Z,14.7
2017-12-12T01:13:15.071Z,14.4
2017-12-12T01:14:17.944Z,14.2
2017-12-12T01:15:22.269Z,14.1
2017-12-12T01:16:26.010Z,14.1
2017-12-12T01:17:29.100Z,13.8
2017-12-12T01:18:32.083Z,13.8
2017-12-12T01:19:36.432Z,13.5
2017-12-12T01:20:40.561Z,13.4
2017-12-12T01:21:46.517Z,13.4
2017-12-12T01:22:51.044Z,13.5
2017-12-12T01:23:54.200Z,13.5
2017-12-12T01:24:56.828Z,13.8
2017-12-12T01:26:02.965Z,13.5
2017-12-12T01:27:05.630Z,13.4
2017-12-12T01:28:09.417Z,13.9
2017-12-12T01:29:13.376Z,13.8
2017-12-12T01:30:17.109Z,13.8
2017-12-12T01:31:21.060Z,13.4
2017-12-12T01:32:24.116Z,13.5
2017-12-12T01:33:28.725Z,13.3
2017-12-12T01:34:33.783Z,14.3
2017-12-12T01:35:39.619Z,14
2017-12-12T01:36:43.818Z,14
2017-12-12T01:37:46.368Z,13.9
2017-12-12T01:38:48.838Z,13.5
2017-12-12T01:39:51.376Z,13.3
2017-12-12T01:40:53.934Z,13.2
2017-12-12T01:41:57.562Z,13.6
2017-12-12T01:43:00.143Z,13.4
2017-12-12T01:44:02.690Z,14
2017-12-12T01:45:07.260Z,13.9
2017-12-12T01:46:10.081Z,14
2017-12-12T01:47:12.613Z,13.9
2017-12-12T01:48:15.076Z,13.9
2017-12-12T01:49:17.597Z,14.1
2017-12-12T01:50:21.014Z,13.9
2017-12-12T01:51:23.738Z,14
2017-12-12T01:52:26.770Z,14
2017-12-12T01:53:29.232Z,14
2017-12-12T01:54:31.771Z,13.4
2017-12-12T01:55:34.945Z,13.4
2017-12-12T01:56:38.110Z,13.7
2017-12-12T01:57:40.734Z,14
2017-12-12T01:58:43.873Z,14.1
2017-12-12T01:59:46.341Z,14.1
2017-12-12T02:00:48.817Z,14.3
2017-12-12T02:01:51.253Z,14
2017-12-12T02:02:53.714Z,14.3
2017-12-12T02:03:56.340Z,14.3
2017-12-12T02:04:59.959Z,14.8
2017-12-12T02:06:03.303Z,14.3
2017-12-12T02:07:05.831Z,14
2017-12-12T02:08:14.538Z,14.1
2017-12-12T02:09:17.008Z,14.1
2017-12-12T02:10:19.865Z,14.3
2017-12-12T02:11:23.085Z,14.6
2017-12-12T02:12:25.546Z,14.6
2017-12-12T02:13:28.049Z,14.3
2017-12-12T02:14:30.651Z,14.1
2017-12-12T02:15:34.188Z,14.7
2017-12-12T02:16:38.139Z,14.6
2017-12-12T02:17:47.265Z,14.3
2017-12-12T02:18:51.177Z,14.1
2017-12-12T02:19:57.170Z,14.3
2017-12-12T02:21:02.184Z,14.4
2017-12-12T02:22:05.429Z,14.4
2017-12-12T02:23:07.808Z,14.1
2017-12-12T02:24:11.200Z,13.9
2017-12-12T02:25:13.691Z,14.1
2017-12-12T02:26:16.228Z,14.3
2017-12-12T02:27:19.338Z,14.2
2017-12-12T02:28:21.835Z,14.2
2017-12-12T02:29:24.948Z,14.2
2017-12-12T02:30:28.040Z,14.4
2017-12-12T02:31:31.067Z,14
2017-12-12T02:32:33.793Z,14.1
2017-12-12T02:33:36.397Z,14
2017-12-12T02:34:38.880Z,14.1
2017-12-12T02:35:41.452Z,14.1
2017-12-12T02:36:44.088Z,14.3
2017-12-12T02:37:46.552Z,14.1
2017-12-12T02:38:49.636Z,14.1
2017-12-12T02:39:52.320Z,14
2017-12-12T02:40:54.709Z,14.2
2017-12-12T02:41:57.216Z,14
2017-12-12T02:42:59.754Z,14.2
2017-12-12T02:44:03.316Z,14.3
2017-12-12T02:45:05.794Z,14.3
2017-12-12T02:46:08.201Z,14.5
2017-12-12T02:47:10.694Z,14
2017-12-12T02:48:13.195Z,14
2017-12-12T02:49:15.748Z,13.8
2017-12-12T02:50:18.192Z,13.8
2017-12-12T02:51:24.487Z,13.7
2017-12-12T02:52:27.405Z,13.7
2017-12-12T02:53:30.384Z,13.8
2017-12-12T02:54:35.866Z,14
2017-12-12T02:55:39.634Z,14.1
2017-12-12T02:56:45.037Z,13.9
2017-12-12T02:59:00.291Z,13.7
2017-12-12T03:00:03.114Z,14.2
2017-12-12T03:01:05.809Z,14
2017-12-12T03:02:08.444Z,14.1
2017-12-12T03:03:14.380Z,14.1
2017-12-12T03:04:17.834Z,13.9
2017-12-12T03:05:20.460Z,13.5
2017-12-12T03:06:25.800Z,13.3
2017-12-12T03:07:29.025Z,13.3
2017-12-12T03:08:33.329Z,13.2
2017-12-12T03:09:37.416Z,13.4
2017-12-12T03:11:55.682Z,13
2017-12-12T03:13:04.286Z,13.1
2017-12-12T03:14:08.095Z,13
2017-12-12T03:15:11.873Z,13.1
2017-12-12T03:16:17.298Z,13.5
2017-12-12T03:17:19.794Z,13.2
2017-12-12T03:18:22.238Z,13.4
2017-12-12T03:19:24.791Z,13.2
2017-12-12T03:20:27.243Z,13
2017-12-12T03:21:29.684Z,13
2017-12-12T03:22:33.259Z,12.7
2017-12-12T03:23:36.401Z,12.9
2017-12-12T03:24:39.668Z,13.1
2017-12-12T03:25:44.454Z,12.8
2017-12-12T03:26:52.028Z,12.7
2017-12-12T03:27:55.421Z,12.9
2017-12-12T03:28:59.957Z,12.7
2017-12-12T03:30:03.952Z,12.8
2017-12-12T03:31:06.969Z,12.9
2017-12-12T03:32:10.234Z,12.8
2017-12-12T03:33:14.948Z,12.8
2017-12-12T03:34:17.397Z,12.7
2017-12-12T03:35:19.960Z,12.6
2017-12-12T03:36:22.598Z,12.6
2017-12-12T03:37:25.745Z,12.8
2017-12-12T03:38:28.204Z,12.8
2017-12-12T03:39:33.150Z,13
2017-12-12T03:40:37.534Z,13.1
2017-12-12T03:41:40.016Z,12.9
2017-12-12T03:42:43.022Z,12.9
2017-12-12T03:43:45.418Z,12.7
2017-12-12T03:44:48.337Z,12.9
2017-12-12T03:45:51.451Z,12.9
2017-12-12T03:46:54.358Z,12.8
2017-12-12T03:47:57.943Z,12.9
2017-12-12T03:49:01.554Z,13
2017-12-12T03:50:04.367Z,12.8
2017-12-12T03:51:07.696Z,12.7
2017-12-12T03:52:10.392Z,12.7
2017-12-12T03:53:13.398Z,12.6
2017-12-12T03:54:16.765Z,12.4
2017-12-12T03:55:20.178Z,12.5
2017-12-12T03:56:23.024Z,12.1
2017-12-12T03:57:25.895Z,12.4
2017-12-12T03:58:29.062Z,12.4
2017-12-12T03:59:31.601Z,12.4
2017-12-12T04:00:34.079Z,12.3
2017-12-12T04:01:36.540Z,12.4
2017-12-12T04:02:39.853Z,12.6
2017-12-12T04:03:43.646Z,12.6
2017-12-12T04:04:46.732Z,12.5
2017-12-12T04:05:49.870Z,12.5
2017-12-12T04:06:52.308Z,12.3
2017-12-12T04:07:54.859Z,12.1
2017-12-12T04:09:00.285Z,11.9
2017-12-12T04:10:02.822Z,11.9
2017-12-12T04:11:05.340Z,12.2
2017-12-12T04:12:08.701Z,12.3
2017-12-12T04:13:12.504Z,12.3
2017-12-12T04:14:14.894Z,12.1
2017-12-12T04:15:17.320Z,12.7
2017-12-12T04:16:19.860Z,12.7
2017-12-12T04:17:23.053Z,12.9
2017-12-12T04:18:27.172Z,12.8
2017-12-12T04:19:31.493Z,12.5
2017-12-12T04:20:36.649Z,12.7
2017-12-12T04:21:40.548Z,12.8
2017-12-12T04:22:46.073Z,12.6
2017-12-12T04:23:50.792Z,12.7
2017-12-12T04:24:54.019Z,12.8
2017-12-12T04:25:57.076Z,12.6
2017-12-12T04:27:00.480Z,12.8
2017-12-12T04:28:04.170Z,12.8
2017-12-12T04:29:08.770Z,12.6
2017-12-12T04:30:11.327Z,12.7
2017-12-12T04:31:13.950Z,12.4
2017-12-12T04:32:21.677Z,12.6
2017-12-12T04:33:26.098Z,12.8
2017-12-12T04:34:28.575Z,12.6
2017-12-12T04:35:31.194Z,12.9
2017-12-12T04:36:33.597Z,12.4
2017-12-12T04:37:37.118Z,12.7
2017-12-12T04:38:40.527Z,12.6
2017-12-12T04:39:43.177Z,12.7
2017-12-12T04:40:45.720Z,12.5
2017-12-12T04:41:48.748Z,12.5
2017-12-12T04:42:51.231Z,12.3
2017-12-12T04:43:54.340Z,12
2017-12-12T04:44:56.903Z,12.2
2017-12-12T04:45:59.342Z,11.7
2017-12-12T04:47:01.900Z,11.7
2017-12-12T04:48:04.432Z,11.8
2017-12-12T04:49:06.957Z,11.5
2017-12-12T04:50:09.492Z,11.9
2017-12-12T04:51:11.963Z,11.5
2017-12-12T04:52:14.528Z,11.6
2017-12-12T04:53:17.635Z,12
2017-12-12T04:54:20.200Z,11.5
2017-12-12T04:55:22.760Z,11.6
2017-12-12T04:56:25.247Z,11.4
2017-12-12T04:57:28.463Z,11.7
2017-12-12T04:58:31.744Z,11.4
2017-12-12T04:59:34.413Z,11.4
2017-12-12T05:00:37.553Z,11.5
2017-12-12T05:01:40.043Z,11.5
2017-12-12T05:02:42.453Z,11.8
2017-12-12T05:03:45.282Z,11.1
2017-12-12T05:04:47.778Z,11.2
2017-12-12T05:05:50.338Z,11.2
2017-12-12T05:06:52.785Z,11.2
2017-12-12T05:07:55.286Z,11.7
2017-12-12T05:08:57.751Z,11.3
2017-12-12T05:10:00.286Z,11.4
2017-12-12T05:11:02.945Z,11.7
2017-12-12T05:12:05.493Z,11.5
2017-12-12T05:13:07.994Z,11.6
2017-12-12T05:14:10.467Z,11.1
2017-12-12T05:15:12.892Z,11.3
2017-12-12T05:16:16.013Z,11.5
2017-12-12T05:17:18.488Z,11.2
2017-12-12T05:18:21.016Z,11.8
2017-12-12T05:19:23.903Z,11.7
2017-12-12T05:20:27.040Z,12
2017-12-12T05:21:29.595Z,11.5
2017-12-12T05:22:32.041Z,11.6
2017-12-12T05:23:34.553Z,11.6
2017-12-12T05:24:36.994Z,11.4
2017-12-12T05:25:39.550Z,11.4
2017-12-12T05:26:42.363Z,11
2017-12-12T05:27:44.928Z,11
2017-12-12T05:28:47.541Z,11.5
2017-12-12T05:29:50.083Z,11
2017-12-12T05:30:52.610Z,11.1
2017-12-12T05:32:00.360Z,11.4
2017-12-12T05:33:02.777Z,11.2
2017-12-12T05:34:05.176Z,11.2
2017-12-12T05:35:07.697Z,11.1
2017-12-12T05:36:10.177Z,11.3
2017-12-12T05:37:12.739Z,11
2017-12-12T05:38:15.430Z,11.1
2017-12-12T05:39:17.975Z,11.6
2017-12-12T05:40:20.863Z,11.3
2017-12-12T05:41:23.409Z,11
2017-12-12T05:42:26.185Z,11
2017-12-12T05:43:28.661Z,11
2017-12-12T05:44:31.238Z,11.3
2017-12-12T05:45:33.642Z,11.2
2017-12-12T05:46:36.088Z,11.3
2017-12-12T05:47:38.502Z,11
2017-12-12T05:48:40.968Z,11.3
2017-12-12T05:49:43.414Z,11
2017-12-12T05:50:45.896Z,10.7
2017-12-12T05:51:48.256Z,10.6
2017-12-12T05:52:50.733Z,10.7
2017-12-12T05:53:53.182Z,10.7
2017-12-12T05:54:55.580Z,10.8
2017-12-12T05:55:58.036Z,10.6
2017-12-12T05:57:00.578Z,10.3
2017-12-12T05:58:03.113Z,10.6
2017-12-12T05:59:05.813Z,11
2017-12-12T06:00:08.231Z,10.9
2017-12-12T06:01:10.681Z,11
2017-12-12T06:02:13.111Z,10.8
2017-12-12T06:03:15.528Z,11
2017-12-12T06:04:18.112Z,10.5
2017-12-12T06:05:20.744Z,10.6
2017-12-12T06:06:23.242Z,10.4
2017-12-12T06:07:25.681Z,10.2
2017-12-12T06:08:28.078Z,10.6
2017-12-12T06:09:30.766Z,10.8
2017-12-12T06:10:33.200Z,11.1
2017-12-12T06:11:35.689Z,10.7
2017-12-12T06:12:38.095Z,10.5
2017-12-12T06:13:40.694Z,10.5
2017-12-12T06:14:43.123Z,11.4
2017-12-12T06:15:49.171Z,12.2
2017-12-12T06:16:52.969Z,12.6
2017-12-12T06:18:00.479Z,12.8
2017-12-12T06:19:03.013Z,12.9
2017-12-12T06:20:05.468Z,13.1
2017-12-12T06:21:07.967Z,13.3
2017-12-12T06:22:10.617Z,13.4
2017-12-12T06:23:13.151Z,13.6
2017-12-12T06:24:15.728Z,13.6
2017-12-12T06:25:18.294Z,13.5
2017-12-12T06:26:20.862Z,13.6
2017-12-12T06:27:23.352Z,13.7
2017-12-12T06:28:25.775Z,13.9
2017-12-12T06:29:28.360Z,14.1
2017-12-12T06:30:31.078Z,14.3
2017-12-12T06:31:33.489Z,14.6
2017-12-12T06:32:37.933Z,14.6
2017-12-12T06:33:40.565Z,14.6
2017-12-12T06:34:43.064Z,14.8
2017-12-12T06:35:45.520Z,14.9
2017-12-12T06:36:47.986Z,14.8
2017-12-12T06:37:50.575Z,14.8
2017-12-12T06:38:53.123Z,14.7
2017-12-12T06:39:55.577Z,14.7
2017-12-12T06:40:58.060Z,14.9
2017-12-12T06:42:00.692Z,15
2017-12-12T06:43:03.269Z,15.1
2017-12-12T06:44:05.888Z,15.1
2017-12-12T06:45:08.409Z,15.1
2017-12-12T06:46:10.875Z,15.1
2017-12-12T06:47:13.346Z,15.1
2017-12-12T06:48:15.860Z,15.2
2017-12-12T06:49:18.340Z,15.2
2017-12-12T06:50:20.873Z,15.2
2017-12-12T06:51:23.303Z,15.1
2017-12-12T06:52:25.816Z,15.3
2017-12-12T06:53:28.294Z,15.1
2017-12-12T06:54:30.825Z,15.3
2017-12-12T06:55:33.503Z,15.3
2017-12-12T06:56:36.202Z,15.3
2017-12-12T06:57:38.969Z,15.3
2017-12-12T06:58:41.576Z,15.3
2017-12-12T06:59:44.054Z,15.3
2017-12-12T07:00:46.624Z,15.4
2017-12-12T07:01:49.338Z,15.4
2017-12-12T07:02:52.201Z,15.4
2017-12-12T07:03:54.691Z,15.3
2017-12-12T07:04:57.250Z,15.3
2017-12-12T07:05:59.703Z,15.3
2017-12-12T07:07:02.227Z,15.3
2017-12-12T07:08:05.089Z,15.5
2017-12-12T07:09:07.597Z,15.4
2017-12-12T07:10:10.191Z,15.5
2017-12-12T07:11:12.711Z,15.3
2017-12-12T07:12:15.218Z,15.3
2017-12-12T07:13:17.778Z,15.3
2017-12-12T07:14:20.417Z,15.3
2017-12-12T07:15:22.879Z,15.4
2017-12-12T07:16:25.466Z,15.4
2017-12-12T07:17:31.899Z,15.4
2017-12-12T07:18:34.891Z,15.6
2017-12-12T07:19:37.466Z,15.6
2017-12-12T07:20:40.209Z,15.6
2017-12-12T07:21:42.842Z,15.6
2017-12-12T07:22:45.302Z,15.7
2017-12-12T07:23:47.794Z,15.8
2017-12-12T07:24:50.270Z,15.8
2017-12-12T07:25:52.768Z,16
2017-12-12T07:26:55.257Z,15.8
2017-12-12T07:27:57.799Z,15.8
2017-12-12T07:29:00.678Z,15.8
2017-12-12T07:30:03.217Z,15.9
2017-12-12T07:31:05.740Z,15.8
2017-12-12T07:32:08.293Z,15.9
2017-12-12T07:33:10.958Z,15.9
2017-12-12T07:34:18.755Z,16
2017-12-12T07:35:21.627Z,15.9
2017-12-12T07:36:24.075Z,15.9
2017-12-12T07:37:26.546Z,15.9
2017-12-12T07:38:28.980Z,15.9
2017-12-12T07:39:31.573Z,16
2017-12-12T07:40:34.093Z,16.1
2017-12-12T07:41:36.513Z,16.2
2017-12-12T07:42:39.030Z,16
2017-12-12T07:43:41.723Z,16
2017-12-12T07:44:44.274Z,15.9
2017-12-12T07:45:46.744Z,16
2017-12-12T07:46:49.165Z,16.1
2017-12-12T07:47:55.137Z,16
2017-12-12T07:48:57.930Z,16.1
2017-12-12T07:50:00.860Z,16
2017-12-12T07:51:03.769Z,15.9
2017-12-12T07:52:06.617Z,15.9
2017-12-12T07:53:13.473Z,15.8
2017-12-12T07:54:19.124Z,15.8
2017-12-12T07:55:23.760Z,16
2017-12-12T07:56:26.432Z,16.1
2017-12-12T07:57:28.947Z,16
2017-12-12T07:58:31.659Z,16.1
2017-12-12T07:59:34.456Z,16.2
2017-12-12T08:00:36.909Z,16.1
2017-12-12T08:01:39.433Z,16
2017-12-12T08:02:42.437Z,16.1
2017-12-12T08:03:44.937Z,15.9
2017-12-12T08:04:47.376Z,16.1
2017-12-12T08:05:49.913Z,16
2017-12-12T08:06:52.348Z,16.2
2017-12-12T08:07:54.853Z,16.2
2017-12-12T08:08:57.363Z,16.3
2017-12-12T08:09:59.927Z,16.1
2017-12-12T08:11:02.546Z,16
2017-12-12T08:12:04.976Z,16.1
2017-12-12T08:13:07.587Z,16.1
2017-12-12T08:14:10.176Z,16.1
2017-12-12T08:15:12.781Z,16.1
2017-12-12T08:16:15.307Z,16
2017-12-12T08:17:18.622Z,16
2017-12-12T08:18:21.143Z,16.1
2017-12-12T08:19:23.593Z,16.1
2017-12-12T08:20:26.079Z,16.1
2017-12-12T08:21:28.517Z,16.2
2017-12-12T08:22:31.044Z,16.2
2017-12-12T08:23:33.631Z,16.1
2017-12-12T08:24:41.444Z,16.2
2017-12-12T08:25:44.245Z,16.2
2017-12-12T08:26:47.397Z,16.1
2017-12-12T08:27:49.983Z,16.1
2017-12-12T08:28:52.523Z,16.1
2017-12-12T08:29:55.285Z,16.2
2017-12-12T08:30:57.734Z,16.1
2017-12-12T08:32:00.210Z,16.1
2017-12-12T08:33:02.892Z,16
2017-12-12T08:34:05.325Z,16
2017-12-12T08:35:08.413Z,16
2017-12-12T08:36:17.634Z,16.2
2017-12-12T08:37:21.032Z,16.2
2017-12-12T08:38:23.547Z,16.1
2017-12-12T08:39:25.978Z,16.2
2017-12-12T08:40:33.751Z,16.2
2017-12-12T08:41:37.424Z,16.2
2017-12-12T08:42:39.860Z,16.3
2017-12-12T08:43:42.421Z,16.3
2017-12-12T08:44:44.836Z,16.2
2017-12-12T08:45:47.352Z,16.1
2017-12-12T08:46:49.913Z,16
2017-12-12T08:47:52.511Z,15.9
2017-12-12T08:48:55.055Z,16.2
2017-12-12T08:49:57.496Z,16.1
2017-12-12T08:51:00.043Z,16
2017-12-12T08:52:02.708Z,15.9
2017-12-12T08:53:05.337Z,15.8
2017-12-12T08:54:08.071Z,15.9
2017-12-12T08:55:10.803Z,15.9
2017-12-12T08:56:13.962Z,15.9
2017-12-12T08:57:16.729Z,15.9
2017-12-12T08:58:19.256Z,15.8
2017-12-12T08:59:21.813Z,15.9
2017-12-12T09:00:24.463Z,15.8
2017-12-12T09:01:27.039Z,15.8
2017-12-12T09:02:29.514Z,15.7
2017-12-12T09:03:32.073Z,15.7
2017-12-12T09:04:34.605Z,15.7
2017-12-12T09:05:37.145Z,15.6
2017-12-12T09:06:39.884Z,15.6
2017-12-12T09:07:42.497Z,15.7
2017-12-12T09:08:45.112Z,15.8
2017-12-12T09:09:47.595Z,15.8
2017-12-12T09:10:50.162Z,15.8
2017-12-12T09:11:52.700Z,15.9
2017-12-12T09:12:55.247Z,15.9
2017-12-12T09:13:57.833Z,15.8
2017-12-12T09:15:00.283Z,15.8
2017-12-12T09:16:03.281Z,15.8
2017-12-12T09:17:05.779Z,15.7
2017-12-12T09:18:08.241Z,15.6
2017-12-12T09:19:10.981Z,15.8
2017-12-12T09:20:13.447Z,15.7
2017-12-12T09:21:15.926Z,15.7
2017-12-12T09:22:18.384Z,15.7
2017-12-12T09:23:20.978Z,15.8
2017-12-12T09:24:23.458Z,15.7
2017-12-12T09:25:26.133Z,15.6
2017-12-12T09:26:28.570Z,15.6
2017-12-12T09:27:32.213Z,15.6
2017-12-12T09:28:35.027Z,15.6
2017-12-12T09:29:37.605Z,15.7
2017-12-12T09:30:40.142Z,15.6
2017-12-12T09:31:42.804Z,15.6
2017-12-12T09:32:45.273Z,15.6
2017-12-12T09:33:47.811Z,15.6
2017-12-12T09:34:50.926Z,15.7
2017-12-12T09:35:53.384Z,15.6
2017-12-12T09:36:55.950Z,15.5
2017-12-12T09:37:58.438Z,15.5
2017-12-12T09:39:01.079Z,15.6
2017-12-12T09:40:03.581Z,15.6
2017-12-12T09:41:06.193Z,15.5
2017-12-12T09:42:08.825Z,15.6
2017-12-12T09:43:11.344Z,15.6
2017-12-12T09:44:13.802Z,15.6
2017-12-12T09:45:16.248Z,15.7
2017-12-12T09:46:18.853Z,15.8
2017-12-12T09:47:21.412Z,15.6
2017-12-12T09:48:23.980Z,15.6
2017-12-12T09:49:26.550Z,15.6
2017-12-12T09:50:29.253Z,15.6
2017-12-12T09:51:31.842Z,15.7
2017-12-12T09:52:34.890Z,15.6
2017-12-12T09:53:37.878Z,15.7
2017-12-12T09:54:41.826Z,15.8
2017-12-12T09:55:44.490Z,15.7
2017-12-12T09:56:46.915Z,15.7
2017-12-12T09:57:49.640Z,15.7
2017-12-12T09:58:52.188Z,15.9
2017-12-12T09:59:54.726Z,15.8
2017-12-12T10:00:57.182Z,15.8
2017-12-12T10:01:59.752Z,15.8
2017-12-12T10:03:02.353Z,15.9
2017-12-12T10:04:04.916Z,15.8
2017-12-12T10:05:07.484Z,15.8
2017-12-12T10:06:09.964Z,15.7
2017-12-12T10:07:12.513Z,15.7
2017-12-12T10:08:14.959Z,15.7
2017-12-12T10:09:17.422Z,15.6
2017-12-12T10:10:19.932Z,15.9
2017-12-12T10:11:22.495Z,15.8
2017-12-12T10:12:24.966Z,15.8
2017-12-12T10:13:27.510Z,15.7
2017-12-12T10:14:29.988Z,15.8
2017-12-12T10:15:32.628Z,15.7
2017-12-12T10:16:35.111Z,15.9
2017-12-12T10:17:37.615Z,15.8
2017-12-12T10:18:40.108Z,15.8
2017-12-12T10:19:42.751Z,15.7
2017-12-12T10:20:45.382Z,15.7
2017-12-12T10:21:48.121Z,15.7
2017-12-12T10:22:56.463Z,15.6
2017-12-12T10:23:59.503Z,15.7
2017-12-12T10:25:02.192Z,15.8
2017-12-12T10:26:04.746Z,15.7
2017-12-12T10:27:07.241Z,15.8
2017-12-12T10:28:11.336Z,16
2017-12-12T10:29:13.900Z,15.9
2017-12-12T10:30:16.468Z,15.8
2017-12-12T10:31:21.006Z,15.8
2017-12-12T10:32:23.827Z,15.8
2017-12-12T10:33:26.349Z,15.8
2017-12-12T10:34:28.880Z,15.8
2017-12-12T10:35:31.536Z,15.7
2017-12-12T10:36:34.171Z,15.8
2017-12-12T10:37:36.774Z,15.8
2017-12-12T10:38:39.216Z,15.9
2017-12-12T10:39:41.787Z,15.9
2017-12-12T10:40:44.310Z,15.8
2017-12-12T10:41:46.949Z,15.8
2017-12-12T10:42:49.555Z,15.8
2017-12-12T10:43:52.162Z,15.9
2017-12-12T10:44:54.692Z,15.9
2017-12-12T10:45:57.179Z,16
2017-12-12T10:46:59.751Z,16.1
2017-12-12T10:48:03.153Z,16
2017-12-12T10:49:05.796Z,16.1
2017-12-12T10:50:08.336Z,16.3
2017-12-12T10:51:11.151Z,16.2
2017-12-12T10:52:13.833Z,16.2
2017-12-12T10:53:16.470Z,16
2017-12-12T10:54:21.891Z,16.1
2017-12-12T10:55:48.152Z,16.2
2017-12-12T10:56:50.940Z,16.3
2017-12-12T10:57:53.545Z,16.3
2017-12-12T10:58:56.046Z,16.2
2017-12-12T10:59:59.159Z,16.2
2017-12-12T11:01:03.470Z,16.3
2017-12-12T11:02:21.133Z,16.3
2017-12-12T11:03:28.737Z,16.4
2017-12-12T11:04:39.509Z,16.2
2017-12-12T11:05:42.789Z,16.1
2017-12-12T11:06:48.880Z,16.2
2017-12-12T11:07:54.343Z,16.2
2017-12-12T11:09:02.950Z,16.2
2017-12-12T11:10:11.984Z,16.4
2017-12-12T11:11:16.089Z,16.4
2017-12-12T11:12:18.679Z,16.3
2017-12-12T11:13:21.383Z,16.4
2017-12-12T11:14:24.098Z,16.5
2017-12-12T11:15:26.571Z,16.5
2017-12-12T11:16:29.134Z,16.5
2017-12-12T11:18:49.231Z,16.4
2017-12-12T11:19:52.152Z,16.5
2017-12-12T11:20:56.579Z,16.5
2017-12-12T11:21:59.524Z,16.6
2017-12-12T11:23:02.041Z,16.6
2017-12-12T11:24:04.609Z,16.6
2017-12-12T11:25:07.322Z,16.4
2017-12-12T11:26:09.919Z,16.5
2017-12-12T11:27:12.587Z,16.5
2017-12-12T11:28:15.098Z,16.4
2017-12-12T11:29:17.703Z,16.3
2017-12-12T11:30:20.210Z,16.5
2017-12-12T11:31:22.857Z,16.5
2017-12-12T11:33:35.041Z,16.4
2017-12-12T11:34:37.530Z,16.5
2017-12-12T11:35:40.142Z,16.4
2017-12-12T11:36:48.453Z,16.5
2017-12-12T11:37:51.515Z,16.5
2017-12-12T11:38:54.054Z,16.5
2017-12-12T11:39:56.601Z,16.4
2017-12-12T11:40:59.416Z,16.4
2017-12-12T11:42:02.051Z,16.5
2017-12-12T11:43:04.491Z,16.5
2017-12-12T11:44:12.404Z,16.5
2017-12-12T11:45:15.085Z,16.5
2017-12-12T11:46:17.587Z,16.5
2017-12-12T11:47:20.243Z,16.5
2017-12-12T11:48:22.854Z,16.5
2017-12-12T11:49:25.347Z,16.5
2017-12-12T11:50:27.836Z,16.5
2017-12-12T11:51:30.431Z,16.5
2017-12-12T11:52:37.888Z,16.5
2017-12-12T11:53:40.794Z,16.3
2017-12-12T11:54:43.436Z,16.5
2017-12-12T11:55:46.265Z,16.4
2017-12-12T11:56:49.378Z,16.5
2017-12-12T11:57:51.956Z,16.6
2017-12-12T11:58:54.397Z,16.3
2017-12-12T11:59:56.939Z,16.4
2017-12-12T12:00:59.420Z,16.3
2017-12-12T12:02:02.203Z,16.2
2017-12-12T12:03:04.703Z,16.3
2017-12-12T12:04:07.260Z,16.2
2017-12-12T12:05:09.939Z,16.2
2017-12-12T12:06:12.781Z,16.2
2017-12-12T12:07:15.430Z,16.3
2017-12-12T12:08:17.915Z,16.2
2017-12-12T12:09:20.500Z,16.3
2017-12-12T12:10:23.115Z,16.4
2017-12-12T12:11:25.603Z,16.4
2017-12-12T12:12:28.163Z,16.2
2017-12-12T12:13:30.676Z,16.3
2017-12-12T12:14:33.437Z,16.4
2017-12-12T12:15:36.104Z,16.4
2017-12-12T12:16:38.661Z,16.4
2017-12-12T12:17:53.990Z,16.2
2017-12-12T12:18:56.731Z,16.4
2017-12-12T12:19:59.365Z,16.4
2017-12-12T12:21:02.017Z,16.4
2017-12-12T12:22:09.345Z,16.3
2017-12-12T12:23:12.487Z,16.4
2017-12-12T12:24:15.230Z,16.4
2017-12-12T12:25:17.802Z,16.5
2017-12-12T12:26:20.662Z,16.4
2017-12-12T12:27:27.426Z,16.6
2017-12-12T12:28:32.802Z,16.6
2017-12-12T12:29:35.522Z,16.5
2017-12-12T12:30:38.377Z,16.6
2017-12-12T12:31:40.969Z,16.5
2017-12-12T12:32:43.500Z,16.7
2017-12-12T12:33:46.147Z,16.7
2017-12-12T12:34:48.705Z,16.6
2017-12-12T12:35:51.423Z,16.5
2017-12-12T12:36:54.109Z,16.7
2017-12-12T12:37:56.722Z,16.8
2017-12-12T12:38:59.320Z,16.6
2017-12-12T12:40:02.555Z,16.7
2017-12-12T12:41:05.068Z,16.7
2017-12-12T12:42:07.609Z,16.8
2017-12-12T12:43:10.153Z,16.8
2017-12-12T12:44:12.779Z,16.7
2017-12-12T12:45:15.422Z,16.7
2017-12-12T12:46:21.673Z,16.8
2017-12-12T12:47:24.662Z,16.7
2017-12-12T12:48:27.190Z,16.7
2017-12-12T12:49:29.682Z,16.6
2017-12-12T12:50:32.298Z,16.7
2017-12-12T12:51:34.832Z,16.6
2017-12-12T12:52:37.497Z,16.7
2017-12-12T12:53:40.084Z,16.7
2017-12-12T12:54:42.559Z,16.7
2017-12-12T12:55:45.163Z,16.7
2017-12-12T12:56:47.902Z,16.6
2017-12-12T12:57:50.432Z,16.7
2017-12-12T12:58:53.091Z,16.7
2017-12-12T12:59:55.575Z,16.4
2017-12-12T13:01:06.495Z,16.7
2017-12-12T13:02:10.285Z,16.5
2017-12-12T13:03:12.925Z,16.6
2017-12-12T13:04:15.574Z,16.5
2017-12-12T13:05:18.067Z,16.6
2017-12-12T13:06:20.517Z,16.6
2017-12-12T13:07:23.040Z,16.6
2017-12-12T13:08:25.569Z,16.5
2017-12-12T13:09:28.293Z,16.5
2017-12-12T13:10:30.879Z,16.7
2017-12-12T13:11:33.428Z,16.6
2017-12-12T13:12:35.928Z,16.5
2017-12-12T13:13:38.425Z,16.5
2017-12-12T13:14:40.884Z,16.5
2017-12-12T13:15:43.632Z,16.4
2017-12-12T13:16:46.184Z,16.5
2017-12-12T13:17:48.667Z,16.6
2017-12-12T13:18:51.174Z,16.5
2017-12-12T13:19:53.881Z,16.5
2017-12-12T13:20:56.416Z,16.6
2017-12-12T13:21:58.886Z,16.6
2017-12-12T13:23:07.778Z,16.6
2017-12-12T13:24:10.520Z,16.6
2017-12-12T13:25:13.097Z,16.6
2017-12-12T13:26:18.170Z,16.6
2017-12-12T13:27:21.718Z,16.7
2017-12-12T13:28:24.196Z,16.6
2017-12-12T13:29:26.823Z,16.6
2017-12-12T13:30:29.358Z,16.6
2017-12-12T13:31:45.730Z,16.5
2017-12-12T13:32:53.713Z,16.5
2017-12-12T13:33:59.941Z,16.6
2017-12-12T13:35:02.827Z,16.5
2017-12-12T13:36:05.374Z,16.4
2017-12-12T13:37:08.000Z,16.6
2017-12-12T13:38:10.543Z,16.6
2017-12-12T13:39:13.216Z,16.6
2017-12-12T13:40:15.882Z,16.5
2017-12-12T13:41:18.477Z,16.4
2017-12-12T13:42:21.315Z,16.5
2017-12-12T13:43:24.138Z,16.5
2017-12-12T13:44:26.693Z,16.5
2017-12-12T13:45:29.285Z,16.5
2017-12-12T13:46:31.822Z,16.5
2017-12-12T13:47:34.541Z,16.4
2017-12-12T13:48:37.094Z,16.5
2017-12-12T13:49:39.665Z,16.5
2017-12-12T13:50:42.380Z,16.6
2017-12-12T13:51:44.881Z,16.6
2017-12-12T13:52:47.531Z,16.4
2017-12-12T13:53:50.032Z,16.5
2017-12-12T13:54:52.561Z,16.6
2017-12-12T13:55:55.054Z,16.5
2017-12-12T13:56:57.689Z,16.5
2017-12-12T13:58:00.242Z,16.5
2017-12-12T13:59:02.889Z,16.6
2017-12-12T14:00:05.337Z,16.6
2017-12-12T14:01:07.890Z,16.6
2017-12-12T14:02:10.351Z,16.7
2017-12-12T14:03:12.950Z,16.8
2017-12-12T14:04:15.494Z,16.8
2017-12-12T14:05:18.049Z,16.5
2017-12-12T14:06:20.577Z,16.7
2017-12-12T14:07:23.118Z,16.7
2017-12-12T14:08:26.287Z,16.8
2017-12-12T14:09:28.803Z,16.7
2017-12-12T14:10:31.278Z,16.7